Fernie, Canada
Current Conditions -  °F | °C
As of 6:00 PM on Friday 19 Dec 2014 (Local Time) from CYXC Reporting Station
Broken Clouds Broken Clouds  
Wind Chill: -1°   Ceiling: 14000
Heat Index:   Visibility: 20mi
Dew Point: -1°   Wind: 6mph
Humidity: 81%   Direction: 160°SSE
Pressure: 29.82"   Gusts: NA
Location:  49.51°N, 115.06°W
Report Text: CYXC 200100Z 16005KT 20SM FEW070 BKN140 BKN200 02/M01 A2982 RMK AC2AC3CI2 SLP129
Loading
Personal Weather Stations






























Interactive Weather Map New forecast layout! Learn more

10-Day Weather Forecast

Advertisements
Track Severe Weather on mobile